Time;durP1;ratioP1;P1;durP2;ratioP2;P2;SDS_P1;SDS_P2;PMS_P1;PMS_P2;Temp;Humidity;BMP_temperature;BMP_pressure;BME280_temperature;BME280_humidity;BME280_pressure;Samples;Min_cycle;Max_cycle;Signal;HPM_P1;HPM_P2
2023/06/11 00:00:54;;;;;;;7.68;4.43;;;;;;;;;;5050807;28;20383;-76
2023/06/11 00:03:21;;;;;;;11.43;5.63;;;;;;;;;;5050933;28;20032;-76
2023/06/11 00:05:47;;;;;;;9.00;5.15;;;;;;;;;;5049975;28;20656;-76
2023/06/11 00:08:13;;;;;;;5.97;4.50;;;;;;;;;;5050544;28;20104;-77
2023/06/11 00:10:40;;;;;;;10.18;5.15;;;;;;;;;;5050782;28;20475;-76
2023/06/11 00:13:06;;;;;;;9.25;5.40;;;;;;;;;;5047247;28;20021;-76
2023/06/11 00:15:32;;;;;;;6.75;4.82;;;;;;;;;;5047806;28;20056;-76
2023/06/11 00:17:58;;;;;;;10.43;5.55;;;;;;;;;;5049562;28;20076;-76
2023/06/11 00:20:24;;;;;;;9.55;5.40;;;;;;;;;;5050145;28;20095;-77
2023/06/11 00:22:50;;;;;;;8.48;5.43;;;;;;;;;;5050040;28;20032;-76
2023/06/11 00:25:16;;;;;;;7.30;5.43;;;;;;;;;;5050566;28;20021;-77
2023/06/11 00:27:42;;;;;;;8.05;5.68;;;;;;;;;;5050580;28;20104;-77
2023/06/11 00:30:08;;;;;;;9.20;5.80;;;;;;;;;;5050159;28;20491;-77
2023/06/11 00:32:35;;;;;;;8.38;5.03;;;;;;;;;;5050579;28;20029;-77
2023/06/11 00:35:06;;;;;;;9.63;5.57;;;;;;;;;;5050119;28;20539;-77
2023/06/11 00:37:32;;;;;;;8.35;5.47;;;;;;;;;;5046526;28;20056;-76
2023/06/11 00:39:58;;;;;;;8.70;5.30;;;;;;;;;;5050102;28;20102;-77
2023/06/11 00:42:24;;;;;;;8.57;5.70;;;;;;;;;;5050192;28;20469;-77
2023/06/11 00:44:51;;;;;;;8.68;6.25;;;;;;;;;;5050498;28;20070;-79
2023/06/11 00:47:18;;;;;;;10.20;5.57;;;;;;;;;;5050409;28;20071;-77
2023/06/11 00:49:44;;;;;;;8.73;7.22;;;;;;;;;;5049548;28;20049;-77
2023/06/11 00:52:13;;;;;;;8.10;5.50;;;;;;;;;;5049696;28;20025;-76
2023/06/11 00:54:40;;;;;;;8.50;5.80;;;;;;;;;;5050291;28;20107;-76
2023/06/11 00:57:07;;;;;;;11.95;6.70;;;;;;;;;;5049946;28;20036;-76
2023/06/11 00:59:34;;;;;;;14.65;7.45;;;;;;;;;;5049644;28;20483;-75
2023/06/11 01:02:06;;;;;;;10.57;5.95;;;;;;;;;;5049055;28;20033;-77
2023/06/11 01:04:35;;;;;;;8.50;5.10;;;;;;;;;;5048955;28;20024;-76
2023/06/11 01:07:01;;;;;;;8.23;5.28;;;;;;;;;;5046485;28;20035;-75
2023/06/11 01:09:28;;;;;;;9.65;5.93;;;;;;;;;;5048477;28;20040;-77
2023/06/11 01:11:57;;;;;;;9.75;6.57;;;;;;;;;;5049178;28;20025;-77
2023/06/11 01:14:23;;;;;;;9.07;6.13;;;;;;;;;;5042169;28;20393;-76
2023/06/11 01:16:53;;;;;;;7.15;4.95;;;;;;;;;;5043106;28;20412;-76
2023/06/11 01:19:19;;;;;;;6.13;4.20;;;;;;;;;;5049890;28;20398;-76
2023/06/11 01:21:50;;;;;;;8.38;6.00;;;;;;;;;;5049693;28;20098;-76
2023/06/11 01:24:21;;;;;;;9.55;7.18;;;;;;;;;;5049618;28;20483;-76
2023/06/11 01:27:04;;;;;;;8.30;5.75;;;;;;;;;;5045445;28;20087;-76
2023/06/11 01:29:30;;;;;;;8.52;6.03;;;;;;;;;;5043634;28;20048;-76
2023/06/11 01:31:57;;;;;;;10.45;5.93;;;;;;;;;;5048340;28;20033;-75
2023/06/11 01:34:25;;;;;;;9.63;7.43;;;;;;;;;;5048507;28;20028;-76
2023/06/11 01:36:51;;;;;;;8.50;5.30;;;;;;;;;;5048577;28;20052;-76
2023/06/11 01:39:17;;;;;;;8.98;6.95;;;;;;;;;;5049580;28;20041;-76
2023/06/11 01:41:43;;;;;;;9.95;6.20;;;;;;;;;;5049748;28;20017;-76
2023/06/11 01:44:10;;;;;;;11.82;7.03;;;;;;;;;;5050162;28;20029;-76
2023/06/11 01:46:36;;;;;;;9.98;7.30;;;;;;;;;;5050752;28;20032;-76
2023/06/11 01:49:02;;;;;;;11.90;7.15;;;;;;;;;;5049711;28;20456;-76
2023/06/11 01:51:29;;;;;;;8.57;6.25;;;;;;;;;;5051496;28;20080;-77
2023/06/11 01:53:56;;;;;;;10.73;6.18;;;;;;;;;;5053971;28;20044;-77
2023/06/11 01:56:26;;;;;;;8.02;6.03;;;;;;;;;;5054809;28;20044;-77
2023/06/11 01:58:53;;;;;;;8.88;5.82;;;;;;;;;;5053997;28;20049;-77
2023/06/11 02:01:20;;;;;;;8.70;6.53;;;;;;;;;;5054298;28;20047;-75
2023/06/11 02:03:46;;;;;;;9.50;6.53;;;;;;;;;;5050902;28;20083;-76
2023/06/11 02:06:13;;;;;;;10.52;6.85;;;;;;;;;;5046149;28;20528;-76
2023/06/11 02:08:39;;;;;;;10.38;6.32;;;;;;;;;;5053734;28;20021;-75
2023/06/11 02:11:05;;;;;;;9.18;6.40;;;;;;;;;;5054320;28;20426;-75
2023/06/11 02:13:31;;;;;;;9.73;7.35;;;;;;;;;;5049634;28;20052;-76
2023/06/11 02:16:00;;;;;;;9.48;6.32;;;;;;;;;;5055656;28;20112;-75
2023/06/11 02:18:26;;;;;;;9.43;6.22;;;;;;;;;;5053762;28;20047;-76
2023/06/11 02:20:52;;;;;;;9.93;6.85;;;;;;;;;;5052551;28;20029;-77
2023/06/11 02:23:19;;;;;;;8.10;6.30;;;;;;;;;;5053902;28;20021;-76
2023/06/11 02:25:45;;;;;;;10.38;6.10;;;;;;;;;;5053387;28;20055;-76
2023/06/11 02:28:12;;;;;;;14.93;6.28;;;;;;;;;;5050239;28;20033;-75
2023/06/11 02:30:39;;;;;;;8.90;6.18;;;;;;;;;;5054795;28;20031;-76
2023/06/11 02:33:05;;;;;;;9.13;6.57;;;;;;;;;;5056001;28;20075;-76
2023/06/11 02:35:31;;;;;;;10.80;6.95;;;;;;;;;;5053054;28;20029;-76
2023/06/11 02:37:57;;;;;;;11.57;6.20;;;;;;;;;;5038449;28;20033;-76
2023/06/11 02:40:23;;;;;;;8.90;5.60;;;;;;;;;;5054020;28;20050;-76
2023/06/11 02:42:49;;;;;;;10.55;6.90;;;;;;;;;;5054455;28;20029;-75
2023/06/11 02:45:15;;;;;;;7.97;6.15;;;;;;;;;;5054553;28;20104;-75
2023/06/11 02:47:41;;;;;;;8.95;6.00;;;;;;;;;;5050343;28;20029;-76
2023/06/11 02:50:07;;;;;;;8.65;6.20;;;;;;;;;;5053883;28;20431;-76
2023/06/11 02:52:33;;;;;;;8.68;6.47;;;;;;;;;;5040686;28;20463;-76
2023/06/11 02:54:59;;;;;;;8.82;6.57;;;;;;;;;;5052598;28;20025;-77
2023/06/11 02:57:25;;;;;;;8.23;5.60;;;;;;;;;;5039054;28;20078;-77
2023/06/11 02:59:52;;;;;;;8.20;6.50;;;;;;;;;;5047578;28;20044;-76
2023/06/11 03:02:18;;;;;;;8.60;5.63;;;;;;;;;;5054393;28;20037;-76
2023/06/11 03:04:44;;;;;;;10.80;7.15;;;;;;;;;;5053613;28;20032;-76
2023/06/11 03:07:10;;;;;;;8.95;5.78;;;;;;;;;;5053112;28;20108;-76
2023/06/11 03:09:36;;;;;;;9.05;7.28;;;;;;;;;;5052140;28;20368;-77
2023/06/11 03:12:02;;;;;;;9.55;6.97;;;;;;;;;;5038118;28;20022;-76
2023/06/11 03:14:28;;;;;;;10.25;7.25;;;;;;;;;;5054842;28;20033;-76
2023/06/11 03:16:54;;;;;;;8.57;6.75;;;;;;;;;;5054787;28;20051;-76
2023/06/11 03:19:20;;;;;;;9.50;5.95;;;;;;;;;;5054261;28;20033;-75
2023/06/11 03:21:48;;;;;;;9.25;6.40;;;;;;;;;;5054003;28;20095;-77
2023/06/11 03:24:15;;;;;;;7.93;6.18;;;;;;;;;;5052940;28;20032;-76
2023/06/11 03:26:41;;;;;;;8.10;5.95;;;;;;;;;;5053590;28;20025;-77
2023/06/11 03:29:07;;;;;;;9.27;5.38;;;;;;;;;;5046537;28;20427;-76
2023/06/11 03:31:33;;;;;;;7.18;6.28;;;;;;;;;;5051988;28;20052;-77
2023/06/11 03:34:00;;;;;;;7.80;5.75;;;;;;;;;;5054326;28;20026;-75
2023/06/11 03:36:26;;;;;;;7.05;5.25;;;;;;;;;;5055003;28;20037;-77
2023/06/11 03:38:52;;;;;;;11.73;7.50;;;;;;;;;;5053876;28;20037;-77
2023/06/11 03:41:19;;;;;;;9.52;6.78;;;;;;;;;;5052236;28;20017;-77
2023/06/11 03:43:45;;;;;;;8.80;6.20;;;;;;;;;;5051655;28;20104;-77
2023/06/11 03:46:11;;;;;;;9.90;6.45;;;;;;;;;;5051889;28;20033;-76
2023/06/11 03:48:37;;;;;;;7.60;5.32;;;;;;;;;;5050807;28;20467;-76
2023/06/11 03:51:03;;;;;;;10.55;6.78;;;;;;;;;;5039170;28;20536;-76
2023/06/11 03:53:30;;;;;;;9.57;6.30;;;;;;;;;;5051225;28;20467;-76
2023/06/11 03:55:56;;;;;;;8.88;6.68;;;;;;;;;;5038638;28;20104;-76
2023/06/11 03:58:22;;;;;;;9.15;6.50;;;;;;;;;;5051323;28;20041;-76
2023/06/11 04:00:48;;;;;;;8.10;6.57;;;;;;;;;;5055053;28;20029;-75
2023/06/11 04:03:14;;;;;;;11.35;6.45;;;;;;;;;;5052327;28;20479;-76
2023/06/11 04:05:41;;;;;;;9.50;6.25;;;;;;;;;;5051537;28;20088;-77
2023/06/11 04:08:07;;;;;;;7.53;6.35;;;;;;;;;;5051440;28;20037;-77
2023/06/11 04:10:33;;;;;;;9.68;6.35;;;;;;;;;;5051767;28;20288;-76
2023/06/11 04:12:59;;;;;;;8.57;6.25;;;;;;;;;;5050807;28;20548;-75
2023/06/11 04:15:25;;;;;;;8.48;6.57;;;;;;;;;;5050895;28;20036;-77
2023/06/11 04:17:51;;;;;;;10.63;6.85;;;;;;;;;;5051714;28;20079;-76
2023/06/11 04:20:17;;;;;;;9.35;6.10;;;;;;;;;;5052025;28;20033;-76
2023/06/11 04:22:43;;;;;;;7.90;6.78;;;;;;;;;;5051262;28;20025;-76
2023/06/11 04:25:11;;;;;;;9.70;7.40;;;;;;;;;;5050878;28;20025;-76
2023/06/11 04:27:38;;;;;;;9.93;7.15;;;;;;;;;;5050673;28;20475;-76
2023/06/11 04:30:05;;;;;;;8.10;6.55;;;;;;;;;;5046190;28;20067;-77
2023/06/11 04:32:34;;;;;;;8.18;5.35;;;;;;;;;;5050466;28;20029;-75
2023/06/11 04:35:02;;;;;;;10.43;6.95;;;;;;;;;;5037268;28;20036;-76
2023/06/11 04:37:30;;;;;;;7.13;5.18;;;;;;;;;;5050381;28;20453;-75
2023/06/11 04:39:57;;;;;;;10.82;6.30;;;;;;;;;;5050587;28;20055;-76
2023/06/11 04:42:24;;;;;;;8.75;6.43;;;;;;;;;;5050920;28;20029;-76
2023/06/11 04:44:50;;;;;;;9.23;6.72;;;;;;;;;;5050404;28;20441;-75
2023/06/11 04:47:22;;;;;;;9.45;6.45;;;;;;;;;;5049971;28;20112;-75
2023/06/11 04:49:51;;;;;;;6.70;5.55;;;;;;;;;;5031701;28;20531;-77
2023/06/11 04:52:17;;;;;;;11.90;7.03;;;;;;;;;;5030318;28;20041;-76
2023/06/11 04:54:45;;;;;;;8.38;5.75;;;;;;;;;;5050437;28;20021;-76
2023/06/11 04:57:11;;;;;;;9.30;5.90;;;;;;;;;;5050933;28;20024;-76
2023/06/11 04:59:37;;;;;;;9.85;5.20;;;;;;;;;;5049662;28;20048;-76
2023/06/11 05:02:03;;;;;;;8.02;5.47;;;;;;;;;;5050678;28;20029;-75
2023/06/11 05:04:31;;;;;;;7.88;5.28;;;;;;;;;;5051641;28;20040;-76
2023/06/11 05:07:00;;;;;;;8.20;6.30;;;;;;;;;;5052428;28;20116;-76
2023/06/11 05:09:26;;;;;;;9.93;6.25;;;;;;;;;;5041770;28;20104;-76
2023/06/11 05:11:52;;;;;;;9.95;5.57;;;;;;;;;;5053627;28;20029;-76
2023/06/11 05:14:18;;;;;;;7.45;5.43;;;;;;;;;;5046906;28;20025;-76
2023/06/11 05:16:45;;;;;;;10.27;6.07;;;;;;;;;;5051796;28;20048;-76
2023/06/11 05:19:11;;;;;;;9.70;6.10;;;;;;;;;;5052570;28;20499;-76
2023/06/11 05:21:37;;;;;;;7.93;5.47;;;;;;;;;;5054087;28;20031;-77
2023/06/11 05:24:07;;;;;;;7.32;5.22;;;;;;;;;;5053183;28;20364;-75
2023/06/11 05:26:37;;;;;;;6.88;5.07;;;;;;;;;;5048431;28;20025;-76
2023/06/11 05:29:04;;;;;;;9.60;6.68;;;;;;;;;;5051655;28;20738;-75
2023/06/11 05:31:30;;;;;;;7.78;5.30;;;;;;;;;;5053150;28;20025;-76
2023/06/11 05:33:57;;;;;;;9.93;6.97;;;;;;;;;;5049558;28;20025;-77
2023/06/11 05:36:23;;;;;;;12.43;7.65;;;;;;;;;;5047680;28;20030;-76
2023/06/11 05:38:51;;;;;;;8.65;5.05;;;;;;;;;;5046439;28;20399;-77
2023/06/11 05:41:17;;;;;;;9.25;7.40;;;;;;;;;;5041909;28;20051;-75
2023/06/11 05:43:43;;;;;;;9.20;6.38;;;;;;;;;;5040120;28;20029;-76
2023/06/11 05:46:09;;;;;;;8.80;7.28;;;;;;;;;;5042458;28;20022;-77
2023/06/11 05:48:35;;;;;;;9.05;7.65;;;;;;;;;;5037841;28;20037;-76
2023/06/11 05:51:05;;;;;;;9.05;5.97;;;;;;;;;;5047802;28;20052;-77
2023/06/11 05:53:31;;;;;;;9.30;6.43;;;;;;;;;;5053390;28;20040;-76
2023/06/11 05:56:02;;;;;;;9.45;6.25;;;;;;;;;;5033986;28;20379;-77
2023/06/11 05:58:28;;;;;;;7.57;6.00;;;;;;;;;;5039869;28;20045;-78
2023/06/11 06:00:56;;;;;;;7.28;5.80;;;;;;;;;;5053190;28;20485;-75
2023/06/11 06:03:22;;;;;;;7.65;5.72;;;;;;;;;;5054159;28;20025;-77
2023/06/11 06:05:48;;;;;;;14.95;5.40;;;;;;;;;;5035149;28;20513;-78
2023/06/11 06:08:14;;;;;;;7.97;4.25;;;;;;;;;;5049217;28;20372;-77
2023/06/11 06:10:40;;;;;;;9.95;5.03;;;;;;;;;;5049027;28;20459;-77
2023/06/11 06:13:06;;;;;;;16.83;4.50;;;;;;;;;;5048755;28;20017;-77
2023/06/11 06:15:32;;;;;;;11.23;5.05;;;;;;;;;;5035587;28;20475;-77
2023/06/11 06:17:58;;;;;;;8.93;4.70;;;;;;;;;;5048610;28;20033;-79
2023/06/11 06:20:24;;;;;;;10.90;4.38;;;;;;;;;;5048437;28;20036;-78
2023/06/11 06:22:50;;;;;;;7.60;5.53;;;;;;;;;;5049263;28;20064;-77
2023/06/11 06:25:17;;;;;;;10.07;5.35;;;;;;;;;;5048691;28;20092;-77
2023/06/11 06:27:43;;;;;;;8.98;4.82;;;;;;;;;;5048394;28;20024;-77
2023/06/11 06:30:10;;;;;;;8.85;5.70;;;;;;;;;;5028261;28;20024;-76
2023/06/11 06:32:38;;;;;;;7.82;4.40;;;;;;;;;;5048630;28;20174;-77
2023/06/11 06:35:05;;;;;;;12.38;4.50;;;;;;;;;;5048814;28;20374;-75
2023/06/11 06:37:31;;;;;;;10.63;4.82;;;;;;;;;;5049001;28;20029;-76
2023/06/11 06:39:57;;;;;;;9.05;6.20;;;;;;;;;;5048053;28;20048;-77
2023/06/11 06:42:23;;;;;;;7.75;5.43;;;;;;;;;;5047398;28;20063;-76
2023/06/11 06:44:49;;;;;;;8.80;4.95;;;;;;;;;;5048535;28;20029;-77
2023/06/11 06:47:15;;;;;;;7.35;4.53;;;;;;;;;;5051691;28;20032;-76
2023/06/11 06:49:41;;;;;;;9.45;6.57;;;;;;;;;;5049921;28;20056;-76
2023/06/11 06:52:09;;;;;;;13.43;8.90;;;;;;;;;;5051662;28;20021;-78
2023/06/11 06:54:35;;;;;;;7.15;5.32;;;;;;;;;;5052530;28;20056;-77
2023/06/11 06:57:01;;;;;;;8.65;7.10;;;;;;;;;;5052235;28;20032;-76
2023/06/11 06:59:27;;;;;;;7.47;5.68;;;;;;;;;;5050878;28;20040;-76
2023/06/11 07:01:53;;;;;;;8.85;5.82;;;;;;;;;;5024549;28;20502;-76
2023/06/11 07:04:20;;;;;;;13.10;8.10;;;;;;;;;;5045205;28;20064;-77
2023/06/11 07:06:46;;;;;;;7.10;5.38;;;;;;;;;;5042749;28;20471;-78
2023/06/11 07:09:12;;;;;;;7.82;5.70;;;;;;;;;;5042497;28;20021;-77
2023/06/11 07:11:38;;;;;;;10.00;8.48;;;;;;;;;;5025111;28;20025;-76
2023/06/11 07:14:04;;;;;;;7.80;6.00;;;;;;;;;;5041115;28;20025;-77
2023/06/11 07:16:30;;;;;;;11.20;7.18;;;;;;;;;;5048811;28;20021;-77
2023/06/11 07:18:57;;;;;;;10.55;6.75;;;;;;;;;;5050182;28;20087;-75
2023/06/11 07:21:24;;;;;;;7.20;5.43;;;;;;;;;;5051225;28;20560;-77
2023/06/11 07:23:50;;;;;;;7.90;5.47;;;;;;;;;;5044948;28;20029;-77
2023/06/11 07:26:18;;;;;;;9.60;6.03;;;;;;;;;;5041214;28;20017;-78
2023/06/11 07:28:45;;;;;;;8.48;5.80;;;;;;;;;;5043693;28;20025;-77
2023/06/11 07:31:12;;;;;;;10.48;7.88;;;;;;;;;;5053810;28;20028;-76
2023/06/11 07:33:38;;;;;;;12.88;7.15;;;;;;;;;;5046320;28;20041;-77
2023/06/11 07:36:05;;;;;;;7.38;5.32;;;;;;;;;;5050973;28;20021;-76
2023/06/11 07:38:31;;;;;;;7.97;5.93;;;;;;;;;;5049912;28;20041;-77
2023/06/11 07:40:57;;;;;;;7.65;6.22;;;;;;;;;;5048583;28;20017;-77
2023/06/11 07:43:23;;;;;;;9.27;6.18;;;;;;;;;;5049288;28;20037;-75
2023/06/11 07:45:49;;;;;;;8.80;5.45;;;;;;;;;;5049745;28;20021;-77
2023/06/11 07:48:15;;;;;;;9.85;4.30;;;;;;;;;;5045268;28;20074;-77
2023/06/11 07:50:41;;;;;;;8.68;4.22;;;;;;;;;;5049851;28;20077;-76
2023/06/11 07:53:08;;;;;;;8.77;4.80;;;;;;;;;;5049413;28;20430;-76
2023/06/11 07:55:34;;;;;;;9.52;6.18;;;;;;;;;;5048484;28;20079;-77
2023/06/11 07:58:00;;;;;;;9.02;4.88;;;;;;;;;;5049057;28;20029;-76
2023/06/11 08:00:26;;;;;;;8.85;6.53;;;;;;;;;;5052823;28;20052;-78
2023/06/11 08:02:52;;;;;;;8.05;6.20;;;;;;;;;;5054103;28;20025;-75
2023/06/11 08:05:18;;;;;;;9.50;4.95;;;;;;;;;;5050545;28;20025;-76
2023/06/11 08:07:45;;;;;;;8.52;5.85;;;;;;;;;;5047936;28;20028;-75
2023/06/11 08:10:11;;;;;;;8.50;5.72;;;;;;;;;;5047076;28;20055;-77
2023/06/11 08:12:37;;;;;;;6.95;4.22;;;;;;;;;;5045188;28;20037;-77
2023/06/11 08:15:04;;;;;;;8.32;4.03;;;;;;;;;;5039323;28;20079;-76
2023/06/11 08:17:30;;;;;;;9.80;5.88;;;;;;;;;;5046520;28;20028;-77
2023/06/11 08:19:56;;;;;;;8.95;5.53;;;;;;;;;;5045770;28;20029;-78
2023/06/11 08:22:22;;;;;;;9.38;5.20;;;;;;;;;;5046863;28;20060;-78
2023/06/11 08:24:48;;;;;;;9.40;5.20;;;;;;;;;;5048368;28;20079;-76
2023/06/11 08:27:14;;;;;;;9.43;6.10;;;;;;;;;;5048673;28;20025;-78
2023/06/11 08:29:41;;;;;;;7.25;5.07;;;;;;;;;;5048642;28;20083;-77
2023/06/11 08:32:07;;;;;;;7.15;4.90;;;;;;;;;;5047439;28;20155;-78
2023/06/11 08:34:33;;;;;;;7.40;4.53;;;;;;;;;;5029796;28;20666;-78
2023/06/11 08:37:01;;;;;;;10.82;5.80;;;;;;;;;;5046669;28;20053;-77
2023/06/11 08:39:27;;;;;;;8.38;5.63;;;;;;;;;;5047540;28;20562;-77
2023/06/11 08:41:53;;;;;;;8.57;6.43;;;;;;;;;;5047694;28;20101;-78
2023/06/11 08:44:23;;;;;;;8.63;5.40;;;;;;;;;;5045494;28;20027;-77
2023/06/11 08:46:49;;;;;;;8.95;4.95;;;;;;;;;;5035809;28;20094;-78
2023/06/11 08:49:22;;;;;;;6.07;4.78;;;;;;;;;;5048984;28;20112;-77
2023/06/11 08:51:49;;;;;;;10.88;4.82;;;;;;;;;;5048724;28;20082;-77
2023/06/11 08:54:15;;;;;;;7.88;4.43;;;;;;;;;;5036210;28;20036;-78
2023/06/11 08:56:41;;;;;;;8.82;4.82;;;;;;;;;;5048864;28;20033;-76
2023/06/11 08:59:10;;;;;;;8.40;5.32;;;;;;;;;;5048376;28;20044;-77
2023/06/11 09:01:36;;;;;;;7.75;5.22;;;;;;;;;;5049268;28;20079;-79
2023/06/11 09:04:02;;;;;;;8.13;5.30;;;;;;;;;;5048353;28;20021;-78
2023/06/11 09:06:29;;;;;;;6.90;4.40;;;;;;;;;;5035760;28;20098;-77
2023/06/11 09:09:04;;;;;;;8.10;5.43;;;;;;;;;;5047731;28;20029;-78
2023/06/11 09:11:33;;;;;;;9.45;7.20;;;;;;;;;;5049126;28;20029;-78
2023/06/11 09:13:59;;;;;;;10.57;5.93;;;;;;;;;;5044377;28;20033;-77
2023/06/11 09:16:25;;;;;;;9.82;6.93;;;;;;;;;;5044638;28;20029;-79
2023/06/11 09:18:51;;;;;;;6.80;5.00;;;;;;;;;;5049149;28;20033;-77
2023/06/11 09:21:17;;;;;;;6.20;4.80;;;;;;;;;;5043110;28;20033;-77
2023/06/11 09:23:45;;;;;;;6.80;4.22;;;;;;;;;;5037026;28;20029;-78
2023/06/11 09:26:16;;;;;;;8.05;5.82;;;;;;;;;;5046228;28;20029;-77
2023/06/11 09:28:42;;;;;;;8.07;5.45;;;;;;;;;;5047461;28;20029;-76
2023/06/11 09:31:08;;;;;;;7.30;4.65;;;;;;;;;;5049293;28;20028;-78
2023/06/11 09:33:34;;;;;;;6.63;5.15;;;;;;;;;;5047820;28;20967;-77
2023/06/11 09:36:00;;;;;;;8.20;4.88;;;;;;;;;;5042468;28;20112;-77
2023/06/11 09:38:27;;;;;;;5.95;4.03;;;;;;;;;;5032378;28;20065;-76
2023/06/11 09:40:57;;;;;;;8.30;5.10;;;;;;;;;;5037265;28;20066;-77
2023/06/11 09:43:24;;;;;;;7.07;4.97;;;;;;;;;;5044596;28;20021;-78
2023/06/11 09:45:53;;;;;;;9.05;4.32;;;;;;;;;;5046482;28;20029;-78
2023/06/11 09:48:22;;;;;;;7.53;4.72;;;;;;;;;;5046458;28;20107;-78
2023/06/11 09:50:49;;;;;;;7.90;4.40;;;;;;;;;;5046007;28;20052;-77
2023/06/11 09:53:16;;;;;;;10.50;5.57;;;;;;;;;;5033707;28;20033;-78
2023/06/11 09:55:43;;;;;;;6.53;4.78;;;;;;;;;;5047753;28;20048;-78
2023/06/11 09:58:10;;;;;;;8.00;4.38;;;;;;;;;;5049085;28;20078;-79
2023/06/11 10:00:36;;;;;;;8.07;4.32;;;;;;;;;;5054049;28;20040;-77
2023/06/11 10:03:02;;;;;;;9.77;5.43;;;;;;;;;;5052509;28;20043;-78
2023/06/11 10:05:28;;;;;;;6.65;4.72;;;;;;;;;;5047237;28;20557;-77
2023/06/11 10:08:03;;;;;;;5.72;4.10;;;;;;;;;;5045295;28;20029;-77
2023/06/11 10:10:30;;;;;;;9.27;5.97;;;;;;;;;;5042239;28;20032;-79
2023/06/11 10:12:56;;;;;;;5.72;4.78;;;;;;;;;;5045622;28;20021;-79
2023/06/11 10:15:24;;;;;;;6.82;4.80;;;;;;;;;;5043302;28;20127;-78
2023/06/11 10:17:51;;;;;;;8.32;5.68;;;;;;;;;;5049383;28;20033;-79
2023/06/11 10:20:21;;;;;;;6.63;4.72;;;;;;;;;;5049090;28;20028;-78
2023/06/11 10:22:48;;;;;;;6.13;4.35;;;;;;;;;;5045056;28;20116;-80
2023/06/11 10:25:14;;;;;;;9.90;5.13;;;;;;;;;;5052433;28;20036;-79
2023/06/11 10:27:43;;;;;;;6.75;5.03;;;;;;;;;;5050669;28;20029;-77
2023/06/11 10:30:10;;;;;;;11.43;4.85;;;;;;;;;;5052183;28;20029;-79
2023/06/11 10:32:36;;;;;;;5.85;4.00;;;;;;;;;;5049705;28;20072;-78
2023/06/11 10:35:07;;;;;;;6.70;4.65;;;;;;;;;;5050963;28;20025;-78
2023/06/11 10:37:33;;;;;;;6.05;4.13;;;;;;;;;;5049757;28;20032;-77
2023/06/11 10:39:59;;;;;;;8.05;4.55;;;;;;;;;;5033214;28;20044;-77
2023/06/11 10:42:35;;;;;;;6.57;4.10;;;;;;;;;;5050111;28;20381;-78
2023/06/11 10:45:05;;;;;;;6.60;4.47;;;;;;;;;;5050620;28;20734;-79
2023/06/11 10:47:40;;;;;;;6.57;4.53;;;;;;;;;;5050866;28;20025;-80
2023/06/11 10:50:12;;;;;;;6.32;3.90;;;;;;;;;;5035836;28;20663;-78
2023/06/11 10:52:51;;;;;;;6.35;4.15;;;;;;;;;;5047603;28;20033;-78
2023/06/11 10:55:20;;;;;;;4.95;3.15;;;;;;;;;;5048080;28;20106;-79
2023/06/11 10:57:46;;;;;;;7.00;4.03;;;;;;;;;;5048282;28;20035;-79
2023/06/11 11:00:13;;;;;;;6.53;4.35;;;;;;;;;;5049137;28;20047;-78
2023/06/11 11:02:39;;;;;;;5.47;3.65;;;;;;;;;;5049131;28;20441;-77
2023/06/11 11:05:07;;;;;;;7.95;4.30;;;;;;;;;;5048638;28;20025;-79
2023/06/11 11:07:34;;;;;;;7.70;4.72;;;;;;;;;;5047638;28;20454;-79
2023/06/11 11:10:05;;;;;;;5.97;4.05;;;;;;;;;;5047847;28;20017;-79
2023/06/11 11:12:44;;;;;;;7.63;4.13;;;;;;;;;;5047028;28;20501;-77
2023/06/11 11:15:14;;;;;;;8.00;4.32;;;;;;;;;;5043188;28;20623;-79
2023/06/11 11:17:40;;;;;;;7.15;4.10;;;;;;;;;;5048951;28;20014;-79
2023/06/11 11:20:07;;;;;;;5.97;4.20;;;;;;;;;;5052228;28;20041;-78
2023/06/11 11:22:33;;;;;;;5.68;3.85;;;;;;;;;;5050866;28;20028;-79
2023/06/11 11:25:00;;;;;;;7.80;4.57;;;;;;;;;;5053215;28;20024;-78
2023/06/11 11:27:26;;;;;;;7.72;4.13;;;;;;;;;;5040049;28;20021;-80
2023/06/11 11:29:56;;;;;;;6.15;3.97;;;;;;;;;;5047173;28;20021;-78
2023/06/11 11:32:23;;;;;;;7.80;4.25;;;;;;;;;;5038688;28;20037;-78
2023/06/11 11:34:49;;;;;;;5.95;3.50;;;;;;;;;;5049872;28;20145;-79
2023/06/11 11:37:16;;;;;;;6.75;3.60;;;;;;;;;;5049185;28;20029;-77
2023/06/11 11:39:42;;;;;;;8.18;3.90;;;;;;;;;;5049318;28;20064;-77
2023/06/11 11:42:09;;;;;;;7.90;3.70;;;;;;;;;;5049056;28;20045;-79
2023/06/11 11:44:39;;;;;;;6.70;3.65;;;;;;;;;;5050350;28;20082;-78
2023/06/11 11:47:08;;;;;;;5.80;3.47;;;;;;;;;;5048473;28;20029;-77
2023/06/11 11:49:34;;;;;;;7.28;4.25;;;;;;;;;;5048106;28;20052;-78
2023/06/11 11:52:00;;;;;;;6.97;4.10;;;;;;;;;;5049069;28;20044;-78
2023/06/11 11:54:26;;;;;;;6.63;3.95;;;;;;;;;;5055479;28;20079;-78
2023/06/11 11:57:07;;;;;;;5.32;3.67;;;;;;;;;;5057389;28;20021;-78
2023/06/11 11:59:40;;;;;;;4.70;3.22;;;;;;;;;;5054716;28;20029;-77
2023/06/11 12:02:07;;;;;;;5.63;3.55;;;;;;;;;;5051020;28;20013;-78
2023/06/11 12:04:36;;;;;;;5.38;3.58;;;;;;;;;;5037736;28;20036;-78
2023/06/11 12:07:03;;;;;;;6.60;4.07;;;;;;;;;;5040371;28;20095;-78
2023/06/11 12:09:29;;;;;;;5.88;3.55;;;;;;;;;;5045776;28;20028;-78
2023/06/11 12:11:55;;;;;;;6.63;3.85;;;;;;;;;;5047947;28;20032;-76
2023/06/11 12:14:22;;;;;;;5.75;3.60;;;;;;;;;;5049902;28;20044;-78
2023/06/11 12:16:48;;;;;;;6.32;4.18;;;;;;;;;;5048850;28;20049;-79
2023/06/11 12:19:18;;;;;;;5.53;3.60;;;;;;;;;;5048025;28;20045;-79
2023/06/11 12:21:44;;;;;;;5.60;3.53;;;;;;;;;;5040763;28;20032;-76
2023/06/11 12:24:12;;;;;;;5.50;3.65;;;;;;;;;;5039597;28;20098;-78
2023/06/11 12:26:41;;;;;;;7.30;3.90;;;;;;;;;;5023644;28;20033;-77
2023/06/11 12:29:07;;;;;;;5.22;3.58;;;;;;;;;;5044297;28;20039;-79
2023/06/11 12:31:33;;;;;;;5.65;3.50;;;;;;;;;;5035811;28;20024;-77
2023/06/11 12:33:59;;;;;;;6.05;3.28;;;;;;;;;;5047607;28;20031;-77
2023/06/11 12:36:25;;;;;;;7.45;4.05;;;;;;;;;;5045396;28;20090;-78
2023/06/11 12:38:51;;;;;;;6.40;3.35;;;;;;;;;;5050072;28;20041;-80
2023/06/11 12:41:17;;;;;;;5.20;3.40;;;;;;;;;;5054259;28;20609;-80
2023/06/11 12:43:43;;;;;;;6.18;3.88;;;;;;;;;;5050011;28;20034;-79
2023/06/11 12:46:10;;;;;;;5.15;3.60;;;;;;;;;;5049644;28;20017;-80
2023/06/11 12:48:36;;;;;;;5.63;4.05;;;;;;;;;;5048150;28;20029;-78
2023/06/11 12:51:02;;;;;;;5.18;3.78;;;;;;;;;;5050240;28;20049;-79
2023/06/11 12:53:30;;;;;;;8.70;4.47;;;;;;;;;;5050177;28;20048;-79
2023/06/11 12:55:56;;;;;;;4.80;3.20;;;;;;;;;;5049421;28;20013;-78
2023/06/11 12:58:22;;;;;;;5.47;3.63;;;;;;;;;;5050916;28;20079;-78
2023/06/11 13:00:48;;;;;;;6.13;4.13;;;;;;;;;;5051429;28;20021;-79
2023/06/11 13:03:14;;;;;;;6.95;4.10;;;;;;;;;;5052275;28;20744;-78
2023/06/11 13:05:40;;;;;;;6.35;3.95;;;;;;;;;;5051642;28;20032;-78
2023/06/11 13:08:06;;;;;;;5.00;3.45;;;;;;;;;;5051001;28;20021;-79
2023/06/11 13:10:32;;;;;;;6.25;3.38;;;;;;;;;;5047449;28;20604;-78
2023/06/11 13:13:00;;;;;;;7.15;4.30;;;;;;;;;;5045284;28;20068;-78
2023/06/11 13:15:26;;;;;;;6.05;3.60;;;;;;;;;;5051781;28;20094;-80
2023/06/11 13:17:52;;;;;;;6.53;3.75;;;;;;;;;;5049250;28;20025;-78
2023/06/11 13:20:20;;;;;;;7.65;3.63;;;;;;;;;;5049716;28;20048;-79
2023/06/11 13:22:46;;;;;;;5.95;3.65;;;;;;;;;;5049788;28;20475;-78
2023/06/11 13:25:12;;;;;;;7.32;3.70;;;;;;;;;;5046734;28;20017;-78
2023/06/11 13:27:38;;;;;;;7.68;4.38;;;;;;;;;;5051991;28;20056;-79
2023/06/11 13:30:08;;;;;;;5.50;3.60;;;;;;;;;;5040703;28;20063;-78
2023/06/11 13:32:39;;;;;;;5.63;3.80;;;;;;;;;;5054332;28;20025;-78
2023/06/11 13:35:05;;;;;;;7.40;4.95;;;;;;;;;;5052499;28;20021;-78
2023/06/11 13:37:32;;;;;;;4.82;3.25;;;;;;;;;;5052423;28;20092;-79
2023/06/11 13:39:58;;;;;;;6.63;3.97;;;;;;;;;;5049243;28;20517;-80
2023/06/11 13:42:25;;;;;;;7.47;4.05;;;;;;;;;;5043128;28;20029;-79
2023/06/11 13:44:51;;;;;;;4.95;3.25;;;;;;;;;;5041808;28;20748;-77
2023/06/11 13:47:17;;;;;;;7.18;3.97;;;;;;;;;;5049042;28;20013;-78
2023/06/11 13:49:44;;;;;;;5.18;3.65;;;;;;;;;;5054184;28;20045;-78
2023/06/11 13:52:10;;;;;;;9.73;4.75;;;;;;;;;;5058970;28;20036;-77
2023/06/11 13:54:37;;;;;;;6.50;4.00;;;;;;;;;;5055978;28;20017;-77
2023/06/11 13:57:03;;;;;;;6.18;4.00;;;;;;;;;;5055329;28;20915;-78
2023/06/11 13:59:31;;;;;;;6.13;3.90;;;;;;;;;;5053299;28;20054;-78
2023/06/11 14:02:00;;;;;;;5.63;4.10;;;;;;;;;;5051876;28;20546;-76
2023/06/11 14:04:27;;;;;;;8.13;3.90;;;;;;;;;;5053680;28;20037;-77
2023/06/11 14:06:53;;;;;;;7.55;4.80;;;;;;;;;;5053787;28;20101;-75
2023/06/11 14:09:19;;;;;;;5.15;3.70;;;;;;;;;;5053651;28;20029;-78
2023/06/11 14:11:45;;;;;;;10.07;4.68;;;;;;;;;;5046031;28;20033;-77
2023/06/11 14:14:12;;;;;;;6.65;4.32;;;;;;;;;;5051588;28;20075;-76
2023/06/11 14:16:39;;;;;;;7.60;3.80;;;;;;;;;;5052845;28;20040;-76
2023/06/11 14:19:09;;;;;;;7.18;3.92;;;;;;;;;;5049947;28;20032;-76
2023/06/11 14:21:35;;;;;;;7.18;4.28;;;;;;;;;;5052903;28;20033;-78
2023/06/11 14:24:02;;;;;;;8.82;4.00;;;;;;;;;;5056228;28;20017;-80
2023/06/11 14:26:28;;;;;;;8.45;3.60;;;;;;;;;;5053856;28;20029;-78
2023/06/11 14:28:54;;;;;;;6.10;4.60;;;;;;;;;;5056364;28;20025;-78
2023/06/11 14:31:22;;;;;;;7.78;3.70;;;;;;;;;;5056396;28;20036;-78
2023/06/11 14:33:48;;;;;;;6.15;4.10;;;;;;;;;;5042731;28;20033;-77
2023/06/11 14:36:14;;;;;;;8.07;4.63;;;;;;;;;;5056409;28;20033;-79
2023/06/11 14:38:40;;;;;;;7.18;4.00;;;;;;;;;;5046806;28;20048;-77